Time;durP1;ratioP1;P1;durP2;ratioP2;P2;SDS_P1;SDS_P2;PMS_P1;PMS_P2;Temp;Humidity;BMP_temperature;BMP_pressure;BME280_temperature;BME280_humidity;BME280_pressure;Samples;Min_cycle;Max_cycle;Signal;HPM_P1;HPM_P2
2022/09/29 00:00:30;;;;;;;2.33;1.33;;;7.50;88.30;;;;;;5079217;28;20078;-76
2022/09/29 00:02:56;;;;;;;3.70;1.50;;;7.50;88.10;;;;;;5095656;28;20081;-77
2022/09/29 00:05:22;;;;;;;1.63;1.20;;;7.40;88.00;;;;;;5095672;28;20047;-77
2022/09/29 00:07:48;;;;;;;1.80;1.60;;;7.30;87.80;;;;;;5095975;28;20047;-77
2022/09/29 00:10:13;;;;;;;2.10;1.70;;;7.30;87.80;;;;;;5096039;28;20633;-77
2022/09/29 00:12:39;;;;;;;5.03;2.40;;;7.20;88.00;;;;;;5078798;28;20032;-77
2022/09/29 00:15:06;;;;;;;4.97;3.00;;;7.30;88.40;;;;;;5096046;28;20036;-76
2022/09/29 00:17:31;;;;;;;17.38;3.42;;;7.30;88.70;;;;;;5095647;28;20499;-77
2022/09/29 00:19:57;;;;;;;10.55;2.95;;;7.40;89.20;;;;;;5078638;28;20044;-76
2022/09/29 00:22:23;;;;;;;8.35;2.55;;;7.40;89.20;;;;;;5095518;28;20040;-76
2022/09/29 00:24:49;;;;;;;9.32;3.63;;;7.40;89.10;;;;;;5095426;28;20040;-77
2022/09/29 00:27:16;;;;;;;18.83;3.75;;;7.40;89.40;;;;;;5095452;28;20036;-76
2022/09/29 00:29:42;;;;;;;81.88;6.68;;;7.30;89.80;;;;;;5095728;28;20124;-77
2022/09/29 00:32:08;;;;;;;52.72;5.65;;;7.30;90.20;;;;;;5095572;28;20379;-76
2022/09/29 00:34:34;;;;;;;15.10;3.08;;;7.30;90.40;;;;;;5095445;28;20047;-76
2022/09/29 00:36:59;;;;;;;8.73;3.03;;;7.30;90.60;;;;;;5078552;28;20473;-76
2022/09/29 00:39:25;;;;;;;26.67;3.90;;;7.30;90.50;;;;;;5094907;28;20064;-76
2022/09/29 00:41:51;;;;;;;13.10;2.72;;;7.30;90.40;;;;;;5095078;28;20137;-76
2022/09/29 00:44:18;;;;;;;7.32;2.30;;;7.30;90.20;;;;;;5095014;28;20077;-77
2022/09/29 00:46:55;;;;;;;4.90;2.00;;;7.10;89.70;;;;;;5094960;28;20502;-77
2022/09/29 00:49:39;;;;;;;2.97;2.67;;;7.10;89.30;;;;;;5094919;28;20043;-76
2022/09/29 00:52:10;;;;;;;3.30;3.00;;;7.00;89.10;;;;;;5094908;28;20047;-76
2022/09/29 00:54:42;;;;;;;3.92;2.55;;;7.10;89.50;;;;;;5095134;28;20051;-77
2022/09/29 00:57:09;;;;;;;3.55;3.25;;;7.10;89.70;;;;;;5095089;28;20036;-77
2022/09/29 00:59:49;;;;;;;4.65;2.92;;;7.10;89.60;;;;;;5061050;28;20054;-76
2022/09/29 01:02:18;;;;;;;11.38;4.60;;;7.20;89.70;;;;;;5095051;28;20039;-76
2022/09/29 01:04:46;;;;;;;8.43;4.32;;;7.30;90.00;;;;;;5094124;28;20052;-76
2022/09/29 01:07:13;;;;;;;4.78;4.20;;;7.30;90.40;;;;;;5094861;28;20127;-77
2022/09/29 01:09:40;;;;;;;4.35;3.75;;;7.30;90.30;;;;;;5094704;28;20460;-76
2022/09/29 01:12:06;;;;;;;5.07;3.80;;;7.30;90.10;;;;;;5077877;28;20035;-76
2022/09/29 01:14:33;;;;;;;3.25;2.95;;;7.40;90.10;;;;;;5094471;28;20043;-77
2022/09/29 01:17:00;;;;;;;3.60;3.20;;;7.40;90.00;;;;;;5094718;28;20043;-76
2022/09/29 01:19:43;;;;;;;4.28;3.45;;;7.40;89.80;;;;;;5094462;28;20484;-76
2022/09/29 01:22:18;;;;;;;3.67;3.13;;;7.50;89.60;;;;;;5094831;28;20059;-76
2022/09/29 01:25:14;;;;;;;3.00;2.53;;;7.50;89.60;;;;;;5108668;28;20044;-76
2022/09/29 01:28:08;;;;;;;3.17;2.30;;;7.50;89.30;;;;;;5114656;28;20035;-76
2022/09/29 01:30:56;;;;;;;3.42;2.85;;;7.50;89.00;;;;;;5114822;28;20085;-77
2022/09/29 01:33:27;;;;;;;4.80;3.78;;;7.40;88.70;;;;;;5097604;28;20138;-76
2022/09/29 01:35:56;;;;;;;3.30;3.00;;;7.40;88.90;;;;;;5097359;28;20070;-76
2022/09/29 01:38:44;;;;;;;2.78;2.58;;;7.50;88.70;;;;;;5114162;28;20411;-76
2022/09/29 01:41:31;;;;;;;2.47;2.28;;;7.40;88.70;;;;;;5114211;28;20117;-76
2022/09/29 01:44:25;;;;;;;2.20;1.90;;;7.30;88.30;;;;;;5114332;28;20044;-76
2022/09/29 01:47:10;;;;;;;3.42;2.35;;;7.30;88.10;;;;;;5114133;28;20039;-77
2022/09/29 01:49:42;;;;;;;2.53;2.15;;;7.20;88.20;;;;;;5114060;28;20085;-77
2022/09/29 01:52:13;;;;;;;3.42;2.90;;;7.20;88.20;;;;;;5113945;28;20031;-77
2022/09/29 01:54:39;;;;;;;3.50;2.70;;;7.10;88.30;;;;;;5096981;28;20044;-76
2022/09/29 01:57:13;;;;;;;15.63;3.42;;;7.10;88.50;;;;;;5114140;28;20046;-77
2022/09/29 01:59:46;;;;;;;3.50;3.20;;;7.20;88.60;;;;;;5114119;28;20043;-76
2022/09/29 02:02:17;;;;;;;3.67;2.88;;;7.20;89.30;;;;;;5113981;28;20392;-76
2022/09/29 02:04:49;;;;;;;3.03;2.72;;;7.20;89.10;;;;;;5113708;28;20043;-77
2022/09/29 02:07:46;;;;;;;10.30;3.60;;;7.10;88.60;;;;;;5113741;28;20118;-77
2022/09/29 02:10:34;;;;;;;19.52;3.80;;;7.00;88.90;;;;;;5097313;28;20035;-77
2022/09/29 02:13:04;;;;;;;33.58;4.60;;;7.00;89.30;;;;;;5113373;28;20036;-76
2022/09/29 02:15:35;;;;;;;13.32;3.85;;;7.00;90.00;;;;;;5112447;28;20045;-77
2022/09/29 02:18:15;;;;;;;20.30;5.05;;;7.00;90.10;;;;;;5113429;28;20039;-76
2022/09/29 02:20:40;;;;;;;4.30;3.00;;;7.00;90.40;;;;;;5096367;28;20118;-77
2022/09/29 02:23:06;;;;;;;30.65;5.63;;;7.00;90.30;;;;;;5113232;28;20139;-77
2022/09/29 02:25:36;;;;;;;13.48;4.28;;;7.00;90.50;;;;;;5113318;28;20039;-77
2022/09/29 02:28:03;;;;;;;38.05;5.53;;;7.00;90.40;;;;;;5096575;28;20542;-76
2022/09/29 02:30:28;;;;;;;4.28;3.58;;;7.00;90.40;;;;;;5113227;28;20043;-77
2022/09/29 02:32:54;;;;;;;11.38;3.53;;;7.00;90.20;;;;;;5113035;28;20043;-77
2022/09/29 02:35:20;;;;;;;4.47;3.47;;;7.10;89.90;;;;;;5096176;28;20075;-77
2022/09/29 02:38:05;;;;;;;14.00;4.10;;;7.00;89.60;;;;;;5113051;28;20078;-77
2022/09/29 02:40:58;;;;;;;17.15;3.80;;;7.00;89.50;;;;;;5096119;28;20031;-76
2022/09/29 02:43:42;;;;;;;6.25;3.33;;;7.00;89.20;;;;;;5113179;28;20062;-76
2022/09/29 02:46:18;;;;;;;19.38;4.07;;;6.90;89.10;;;;;;5112959;28;20035;-76
2022/09/29 02:49:05;;;;;;;5.22;3.65;;;6.80;88.90;;;;;;5112922;28;20039;-76
2022/09/29 02:51:40;;;;;;;7.30;3.58;;;6.80;89.00;;;;;;5112780;28;20038;-77
2022/09/29 02:54:43;;;;;;;36.10;4.55;;;6.80;89.20;;;;;;5112871;28;20074;-77
2022/09/29 02:57:16;;;;;;;6.22;3.42;;;6.80;89.00;;;;;;5113026;28;20040;-77
2022/09/29 03:00:07;;;;;;;15.70;4.65;;;6.70;88.90;;;;;;5112990;28;20568;-77
2022/09/29 03:02:33;;;;;;;29.60;5.38;;;6.70;89.10;;;;;;5095642;28;20039;-77
2022/09/29 03:04:59;;;;;;;34.85;6.05;;;6.70;89.50;;;;;;5095471;28;20070;-77
2022/09/29 03:07:24;;;;;;;39.80;5.60;;;6.70;89.60;;;;;;5095559;28;20082;-76
2022/09/29 03:09:50;;;;;;;120.55;10.02;;;6.80;89.80;;;;;;5112735;28;20070;-77
2022/09/29 03:12:17;;;;;;;85.40;7.07;;;6.80;90.00;;;;;;5095478;28;20439;-76
2022/09/29 03:14:43;;;;;;;15.25;4.03;;;6.70;90.30;;;;;;5112725;28;20039;-76
2022/09/29 03:17:09;;;;;;;90.18;9.38;;;6.80;90.10;;;;;;5095695;28;20388;-76
2022/09/29 03:19:34;;;;;;;55.90;6.88;;;6.90;90.00;;;;;;5095486;28;20040;-76
2022/09/29 03:22:00;;;;;;;30.38;6.22;;;6.80;90.30;;;;;;5112237;28;20043;-76
2022/09/29 03:24:26;;;;;;;78.30;8.30;;;6.70;90.40;;;;;;5112128;28;20128;-77
2022/09/29 03:26:51;;;;;;;8.98;3.78;;;6.80;90.60;;;;;;5112095;28;20036;-76
2022/09/29 03:29:17;;;;;;;19.83;3.90;;;6.70;90.40;;;;;;5095275;28;20486;-77
2022/09/29 03:31:43;;;;;;;14.93;3.88;;;6.70;90.00;;;;;;5112134;28;20039;-76
2022/09/29 03:34:08;;;;;;;36.60;4.50;;;6.60;89.60;;;;;;5095449;28;20441;-76
2022/09/29 03:36:34;;;;;;;19.80;4.03;;;6.50;89.30;;;;;;5095185;28;20453;-76
2022/09/29 03:39:03;;;;;;;43.17;5.32;;;6.40;89.30;;;;;;5111926;28;20125;-77
2022/09/29 03:41:28;;;;;;;28.40;4.88;;;6.40;89.20;;;;;;5112050;28;20055;-77
2022/09/29 03:43:54;;;;;;;4.05;2.90;;;6.30;89.20;;;;;;5112113;28;20035;-77
2022/09/29 03:46:20;;;;;;;24.45;5.57;;;6.30;89.30;;;;;;5095363;28;20130;-77
2022/09/29 03:48:45;;;;;;;8.23;3.72;;;6.30;89.60;;;;;;5095423;28;20479;-76
2022/09/29 03:51:11;;;;;;;24.55;6.20;;;6.30;89.80;;;;;;5111935;28;20480;-76
2022/09/29 03:53:37;;;;;;;7.28;4.43;;;6.40;89.90;;;;;;5112005;28;20043;-77
2022/09/29 03:56:03;;;;;;;24.08;5.72;;;6.40;90.20;;;;;;5111960;28;20049;-77
2022/09/29 03:58:29;;;;;;;13.30;5.03;;;6.30;90.40;;;;;;5111912;28;20128;-76
2022/09/29 04:00:54;;;;;;;23.15;6.40;;;6.40;90.40;;;;;;5112062;28;20082;-77
2022/09/29 04:03:20;;;;;;;17.95;6.47;;;6.40;90.70;;;;;;5094874;28;20039;-76
2022/09/29 04:05:49;;;;;;;16.08;7.10;;;6.40;90.50;;;;;;5112124;28;20040;-76
2022/09/29 04:08:15;;;;;;;10.63;6.07;;;6.40;90.40;;;;;;5094929;28;20035;-76
2022/09/29 04:10:41;;;;;;;20.58;7.18;;;6.40;90.50;;;;;;5111723;28;20046;-77
2022/09/29 04:13:07;;;;;;;11.52;6.97;;;6.40;90.70;;;;;;5095026;28;20043;-76
2022/09/29 04:15:33;;;;;;;9.13;6.60;;;6.40;90.80;;;;;;5111783;28;20036;-77
2022/09/29 04:17:59;;;;;;;7.45;6.28;;;6.40;90.80;;;;;;5111765;28;20373;-77
2022/09/29 04:20:25;;;;;;;6.18;5.43;;;6.40;90.60;;;;;;5112025;28;20130;-77
2022/09/29 04:22:51;;;;;;;6.57;5.75;;;6.40;90.40;;;;;;5094446;28;20043;-77
2022/09/29 04:25:17;;;;;;;9.80;5.72;;;6.40;90.10;;;;;;5094719;28;20038;-76
2022/09/29 04:27:43;;;;;;;7.63;4.75;;;6.30;90.10;;;;;;5094679;28;20498;-76
2022/09/29 04:30:09;;;;;;;27.55;7.47;;;6.30;90.10;;;;;;5094713;28;20035;-76
2022/09/29 04:32:35;;;;;;;13.93;6.80;;;6.20;90.10;;;;;;5111754;28;20132;-75
2022/09/29 04:35:01;;;;;;;50.13;9.48;;;6.20;90.30;;;;;;5094646;28;20519;-76
2022/09/29 04:37:27;;;;;;;41.85;9.23;;;6.30;90.70;;;;;;5094255;28;20039;-76
2022/09/29 04:39:53;;;;;;;23.73;6.28;;;6.20;90.80;;;;;;5114114;28;20488;-76
2022/09/29 04:42:19;;;;;;;70.53;13.30;;;6.20;90.80;;;;;;5081270;28;20047;-75
2022/09/29 04:44:45;;;;;;;62.10;9.45;;;6.20;90.80;;;;;;5115127;28;20079;-75
2022/09/29 04:47:11;;;;;;;21.70;7.15;;;6.20;90.80;;;;;;5081455;28;20123;-76
2022/09/29 04:49:37;;;;;;;74.38;10.65;;;6.20;90.80;;;;;;5115459;28;20054;-76
2022/09/29 04:52:03;;;;;;;78.90;9.98;;;6.20;90.90;;;;;;5098299;28;20031;-77
2022/09/29 04:54:33;;;;;;;72.47;18.92;;;6.10;91.00;;;;;;5115297;28;20036;-77
2022/09/29 04:57:00;;;;;;;29.48;9.10;;;6.10;91.10;;;;;;5115296;28;20051;-78
2022/09/29 04:59:26;;;;;;;141.65;16.00;;;6.10;91.10;;;;;;5114971;28;20082;-77
2022/09/29 05:01:52;;;;;;;104.88;12.30;;;6.00;91.20;;;;;;5098005;28;20062;-76
2022/09/29 05:04:18;;;;;;;102.82;13.10;;;5.90;91.70;;;;;;5114588;28;20484;-78
2022/09/29 05:06:44;;;;;;;108.85;13.68;;;5.90;92.00;;;;;;5098015;28;20043;-75
2022/09/29 05:09:10;;;;;;;42.67;9.57;;;5.90;92.20;;;;;;5097996;28;20434;-78
2022/09/29 05:11:35;;;;;;;109.75;13.07;;;5.80;92.40;;;;;;5097391;28;20035;-77
2022/09/29 05:14:01;;;;;;;51.45;9.00;;;5.70;92.50;;;;;;5114496;28;20089;-78
2022/09/29 05:16:27;;;;;;;14.88;6.10;;;5.80;92.50;;;;;;5114675;28;20043;-78
2022/09/29 05:18:52;;;;;;;12.05;5.47;;;5.80;92.30;;;;;;5097697;28;20047;-78
2022/09/29 05:21:18;;;;;;;7.50;5.05;;;5.80;92.10;;;;;;5097150;28;20044;-76
2022/09/29 05:23:44;;;;;;;10.02;5.05;;;5.70;91.80;;;;;;5114375;28;20065;-78
2022/09/29 05:26:11;;;;;;;23.42;5.88;;;5.70;91.60;;;;;;5114350;28;20038;-78
2022/09/29 05:28:38;;;;;;;7.60;4.53;;;5.60;91.30;;;;;;5114330;28;20039;-78
2022/09/29 05:31:05;;;;;;;7.40;5.07;;;5.60;91.40;;;;;;5113697;28;20092;-77
2022/09/29 05:33:32;;;;;;;8.48;5.65;;;5.70;91.40;;;;;;5113816;28;20044;-75
2022/09/29 05:35:57;;;;;;;10.50;5.78;;;5.70;91.40;;;;;;5097380;28;20066;-78
2022/09/29 05:38:24;;;;;;;8.98;6.03;;;5.70;91.30;;;;;;5113978;28;20101;-77
2022/09/29 05:40:51;;;;;;;10.77;5.80;;;5.70;91.10;;;;;;5113861;28;20055;-77
2022/09/29 05:43:17;;;;;;;6.75;5.97;;;5.70;91.00;;;;;;5080399;28;20039;-76
2022/09/29 05:45:43;;;;;;;7.28;5.35;;;5.70;91.00;;;;;;5114815;28;20059;-76
2022/09/29 05:48:09;;;;;;;7.63;5.25;;;5.80;91.00;;;;;;5113942;28;20495;-77
2022/09/29 05:50:40;;;;;;;6.13;5.10;;;5.80;90.80;;;;;;5096640;28;20046;-77
2022/09/29 05:53:10;;;;;;;7.13;6.07;;;5.80;90.80;;;;;;5114068;28;20039;-77
2022/09/29 05:55:36;;;;;;;6.90;5.80;;;5.80;90.70;;;;;;5113968;28;20036;-77
2022/09/29 05:58:04;;;;;;;7.65;5.80;;;5.80;90.70;;;;;;5096934;28;20441;-76
2022/09/29 06:00:33;;;;;;;11.38;6.88;;;5.80;90.70;;;;;;5113731;28;20039;-76
2022/09/29 06:03:00;;;;;;;9.45;7.13;;;5.90;90.80;;;;;;5113282;28;20035;-76
2022/09/29 06:05:27;;;;;;;9.23;7.20;;;5.90;90.90;;;;;;5113505;28;20040;-76
2022/09/29 06:07:54;;;;;;;7.13;6.43;;;6.00;90.80;;;;;;5096510;28;20050;-77
2022/09/29 06:10:20;;;;;;;5.90;5.15;;;6.00;90.70;;;;;;5096734;28;20131;-77
2022/09/29 06:12:45;;;;;;;5.93;4.85;;;5.90;90.60;;;;;;5113661;28;20126;-77
2022/09/29 06:15:11;;;;;;;10.93;7.40;;;6.00;90.60;;;;;;5079717;28;20404;-77
2022/09/29 06:17:37;;;;;;;9.27;6.55;;;5.90;90.50;;;;;;5096754;28;20046;-77
2022/09/29 06:20:04;;;;;;;7.63;6.10;;;6.00;90.70;;;;;;5113693;28;20468;-77
2022/09/29 06:22:30;;;;;;;7.95;5.10;;;6.00;90.70;;;;;;5113051;28;20043;-78
2022/09/29 06:24:56;;;;;;;6.82;4.70;;;6.10;90.60;;;;;;5113047;28;20044;-77
2022/09/29 06:27:22;;;;;;;9.70;5.38;;;6.10;90.60;;;;;;5113416;28;20046;-77
2022/09/29 06:29:47;;;;;;;6.82;5.22;;;6.10;90.50;;;;;;5096203;28;20399;-77
2022/09/29 06:32:13;;;;;;;7.30;4.57;;;6.10;90.40;;;;;;5113196;28;20035;-77
2022/09/29 06:37:33;;;;;;;7.63;5.00;;;6.10;90.30;;;;;;5095836;28;20135;-77
2022/09/29 06:37:34;;;;;;;7.93;5.75;;;6.10;90.50;;;;;;5084378;28;20051;-77
2022/09/29 06:40:04;;;;;;;7.03;6.22;;;6.10;90.60;;;;;;5112967;28;20044;-77
2022/09/29 06:42:30;;;;;;;8.25;7.45;;;6.20;90.60;;;;;;5112891;28;20120;-78
2022/09/29 06:44:55;;;;;;;7.00;5.60;;;6.30;90.70;;;;;;5095547;28;20093;-77
2022/09/29 06:47:21;;;;;;;5.95;5.35;;;6.40;90.50;;;;;;5113212;28;20035;-77
2022/09/29 06:49:49;;;;;;;12.48;5.53;;;6.40;90.20;;;;;;5112675;28;20476;-77
2022/09/29 06:52:15;;;;;;;7.22;5.90;;;6.40;90.10;;;;;;5096364;28;20050;-77
2022/09/29 06:54:41;;;;;;;6.18;5.35;;;6.40;90.20;;;;;;5112358;28;20123;-77
2022/09/29 06:57:07;;;;;;;7.38;6.68;;;6.40;90.30;;;;;;5095877;28;20157;-77
2022/09/29 06:59:33;;;;;;;10.50;7.82;;;6.40;90.70;;;;;;5112732;28;20093;-76
2022/09/29 07:01:59;;;;;;;10.77;9.68;;;6.50;90.90;;;;;;5111943;28;20047;-77
2022/09/29 07:04:24;;;;;;;11.25;10.13;;;6.50;91.10;;;;;;5112621;28;20039;-77
2022/09/29 07:06:50;;;;;;;10.73;9.73;;;6.60;91.20;;;;;;5112848;28;20048;-76
2022/09/29 07:09:16;;;;;;;9.13;7.95;;;6.70;91.20;;;;;;5095630;28;20046;-77
2022/09/29 07:11:45;;;;;;;11.00;9.07;;;6.80;91.80;;;;;;5112431;28;20126;-77
2022/09/29 07:14:20;;;;;;;10.32;8.93;;;7.00;91.80;;;;;;5112324;28;20035;-77
2022/09/29 07:16:47;;;;;;;9.32;8.35;;;7.00;91.20;;;;;;5112454;28;20123;-77
2022/09/29 07:19:13;;;;;;;12.65;10.07;;;7.10;91.00;;;;;;5112361;28;20043;-77
2022/09/29 07:21:38;;;;;;;9.30;8.40;;;7.20;91.30;;;;;;5112596;28;20047;-77
2022/09/29 07:24:04;;;;;;;10.60;9.05;;;7.20;90.80;;;;;;5089015;28;20039;-78
2022/09/29 07:26:30;;;;;;;12.80;10.50;;;7.30;91.30;;;;;;5086371;28;20387;-78
2022/09/29 07:28:56;;;;;;;12.68;11.38;;;7.40;91.50;;;;;;5112268;28;20096;-77
2022/09/29 07:31:22;;;;;;;14.60;11.75;;;7.50;91.50;;;;;;5112518;28;20032;-76
2022/09/29 07:33:49;;;;;;;14.90;13.40;;;7.60;91.70;;;;;;5112046;28;20058;-77
2022/09/29 07:36:17;;;;;;;17.50;14.40;;;7.70;91.10;;;;;;5106235;28;20047;-76
2022/09/29 07:38:45;;;;;;;11.13;10.05;;;7.80;92.20;;;;;;5094948;28;20059;-77
2022/09/29 07:41:11;;;;;;;16.75;13.80;;;7.90;92.20;;;;;;5111880;28;20112;-76
2022/09/29 07:43:37;;;;;;;13.23;11.45;;;8.00;92.60;;;;;;5112215;28;20106;-78
2022/09/29 07:46:04;;;;;;;15.75;14.07;;;8.10;92.40;;;;;;5112022;28;20040;-77
2022/09/29 07:48:31;;;;;;;17.08;15.27;;;8.20;92.10;;;;;;5112135;28;20040;-77
2022/09/29 07:51:04;;;;;;;15.60;13.40;;;8.40;91.80;;;;;;5112137;28;20046;-77
2022/09/29 07:53:31;;;;;;;16.35;14.45;;;8.50;91.80;;;;;;5112052;28;20046;-77
2022/09/29 07:56:05;;;;;;;15.20;12.68;;;8.70;91.90;;;;;;5112265;28;20042;-77
2022/09/29 07:58:31;;;;;;;16.00;14.40;;;8.80;91.60;;;;;;5111704;28;20484;-78
2022/09/29 08:00:57;;;;;;;21.75;19.08;;;9.00;91.90;;;;;;5094643;28;20069;-77
2022/09/29 08:03:24;;;;;;;24.27;19.65;;;9.10;93.30;;;;;;5095035;28;20430;-77
2022/09/29 08:05:53;;;;;;;24.48;18.45;;;9.30;92.30;;;;;;5094266;28;20028;-78
2022/09/29 08:08:19;;;;;;;25.00;19.73;;;9.50;91.50;;;;;;5091468;28;20505;-77
2022/09/29 08:10:45;;;;;;;24.10;19.50;;;9.60;92.70;;;;;;5091419;28;20054;-76
2022/09/29 08:13:11;;;;;;;23.17;20.45;;;9.80;92.40;;;;;;5076104;28;20047;-76
2022/09/29 08:15:36;;;;;;;22.35;18.80;;;10.00;92.40;;;;;;5078887;28;20050;-76
2022/09/29 08:18:02;;;;;;;24.50;20.20;;;10.20;92.90;;;;;;5095163;28;20551;-77
2022/09/29 08:20:28;;;;;;;26.67;20.17;;;10.30;91.90;;;;;;5081860;28;20028;-77
2022/09/29 08:22:55;;;;;;;23.88;17.60;;;10.50;92.90;;;;;;5084051;28;20106;-76
2022/09/29 08:25:22;;;;;;;23.45;19.05;;;10.50;91.80;;;;;;5080456;28;20056;-76
2022/09/29 08:27:48;;;;;;;20.20;17.27;;;10.70;92.40;;;;;;5061835;28;20127;-77
2022/09/29 08:30:14;;;;;;;24.88;18.92;;;10.80;91.70;;;;;;5095535;28;20119;-77
2022/09/29 08:32:40;;;;;;;22.40;18.23;;;10.90;91.70;;;;;;5095237;28;20130;-76
2022/09/29 08:35:06;;;;;;;22.17;18.48;;;11.10;91.80;;;;;;5095266;28;20039;-76
2022/09/29 08:37:32;;;;;;;25.25;19.33;;;11.30;92.60;;;;;;5099357;28;20161;-76
2022/09/29 08:39:58;;;;;;;24.73;18.42;;;11.40;92.00;;;;;;5104096;28;20491;-79
2022/09/29 08:42:52;;;;;;;25.55;17.92;;;11.50;92.40;;;;;;5105308;28;20105;-76
2022/09/29 08:45:32;;;;;;;21.70;16.87;;;11.60;92.00;;;;;;5105187;28;20051;-76
2022/09/29 08:48:15;;;;;;;21.40;17.38;;;11.70;91.60;;;;;;5113631;28;20118;-76
2022/09/29 08:50:46;;;;;;;21.38;16.48;;;11.80;91.30;;;;;;5098263;28;20485;-76
2022/09/29 08:53:15;;;;;;;19.20;15.13;;;12.00;91.50;;;;;;5115335;28;20047;-76
2022/09/29 08:55:49;;;;;;;19.85;14.35;;;12.00;91.20;;;;;;5115257;28;20040;-76
2022/09/29 08:58:16;;;;;;;15.30;12.90;;;12.10;91.10;;;;;;5113254;28;20035;-76
2022/09/29 09:01:01;;;;;;;13.82;11.88;;;12.20;90.90;;;;;;5094801;28;20480;-76
2022/09/29 09:03:32;;;;;;;14.30;11.23;;;12.40;90.60;;;;;;5102225;28;20031;-76
2022/09/29 09:06:01;;;;;;;15.20;13.27;;;12.50;90.40;;;;;;5104296;28;20034;-76
2022/09/29 09:08:56;;;;;;;12.20;10.90;;;12.60;89.90;;;;;;5106017;28;20088;-76
2022/09/29 09:11:40;;;;;;;11.18;10.02;;;12.70;89.80;;;;;;5097683;28;20058;-76
2022/09/29 09:14:44;;;;;;;12.20;9.70;;;12.80;89.40;;;;;;5114786;28;20126;-76
2022/09/29 09:17:36;;;;;;;12.75;10.13;;;13.00;89.00;;;;;;5115000;28;20066;-76
2022/09/29 09:20:15;;;;;;;10.43;7.90;;;13.00;87.90;;;;;;5114926;28;20047;-76
2022/09/29 09:22:54;;;;;;;10.48;9.25;;;13.20;88.10;;;;;;5114700;28;20051;-76
2022/09/29 09:25:28;;;;;;;10.63;8.40;;;13.30;87.60;;;;;;5113943;28;20391;-76
2022/09/29 09:28:01;;;;;;;11.35;8.18;;;13.50;87.40;;;;;;5114423;28;20036;-76
2022/09/29 09:30:33;;;;;;;8.73;7.30;;;13.50;86.80;;;;;;5114727;28;20071;-76
2022/09/29 09:33:05;;;;;;;8.80;7.18;;;13.60;86.50;;;;;;5114338;28;20042;-76
2022/09/29 09:35:45;;;;;;;7.45;6.18;;;13.60;85.70;;;;;;5097704;28;20380;-76
2022/09/29 09:38:17;;;;;;;7.68;6.90;;;13.80;84.90;;;;;;5114335;28;20083;-76
2022/09/29 09:40:51;;;;;;;9.57;6.10;;;13.80;84.00;;;;;;5114030;28;20044;-76
2022/09/29 09:43:30;;;;;;;8.50;7.20;;;13.90;83.20;;;;;;5113955;28;20051;-76
2022/09/29 09:46:17;;;;;;;8.82;6.35;;;14.00;83.30;;;;;;5114229;28;20039;-76
2022/09/29 09:48:57;;;;;;;10.73;7.18;;;14.00;82.80;;;;;;5097094;28;20046;-77
2022/09/29 09:51:41;;;;;;;8.23;6.60;;;14.20;82.80;;;;;;5097065;28;20043;-77
2022/09/29 09:54:35;;;;;;;6.97;4.90;;;14.20;82.00;;;;;;5114234;28;20376;-77
2022/09/29 09:57:13;;;;;;;7.13;5.40;;;14.50;82.00;;;;;;5113859;28;20560;-76
2022/09/29 09:59:44;;;;;;;11.05;6.03;;;14.50;80.30;;;;;;5113886;28;20043;-76
2022/09/29 10:02:17;;;;;;;7.82;6.97;;;14.60;80.50;;;;;;5114072;28;20126;-75
2022/09/29 10:04:43;;;;;;;8.65;5.88;;;14.70;79.50;;;;;;5096824;28;20046;-76
2022/09/29 10:07:09;;;;;;;7.90;5.75;;;14.80;78.90;;;;;;5113694;28;20039;-76
2022/09/29 10:09:35;;;;;;;9.48;5.35;;;14.90;79.40;;;;;;5113762;28;20048;-76
2022/09/29 10:12:01;;;;;;;8.15;4.80;;;15.10;78.00;;;;;;5096471;28;20040;-76
2022/09/29 10:14:27;;;;;;;6.18;5.00;;;15.20;77.50;;;;;;5113826;28;20043;-76
2022/09/29 10:16:58;;;;;;;6.28;4.22;;;15.30;76.70;;;;;;5111615;28;20050;-77
2022/09/29 10:20:04;;;;;;;8.20;4.70;;;15.40;76.40;;;;;;5103845;28;20107;-76
2022/09/29 10:22:31;;;;;;;5.50;4.65;;;15.50;75.20;;;;;;5102122;28;20392;-76
2022/09/29 10:25:19;;;;;;;6.75;5.22;;;15.70;75.50;;;;;;5084782;28;20114;-77
2022/09/29 10:27:49;;;;;;;10.27;5.20;;;15.80;74.70;;;;;;5112941;28;20498;-77
2022/09/29 10:30:43;;;;;;;5.78;3.90;;;16.00;74.80;;;;;;5113274;28;20126;-76
2022/09/29 10:33:16;;;;;;;7.03;4.85;;;15.80;73.90;;;;;;5112929;28;20471;-76
2022/09/29 10:35:43;;;;;;;7.13;4.68;;;15.70;72.10;;;;;;5112888;28;20047;-77
2022/09/29 10:38:23;;;;;;;7.35;2.97;;;15.90;73.20;;;;;;5112482;28;20060;-77
2022/09/29 10:40:58;;;;;;;4.30;2.88;;;16.00;71.00;;;;;;5113065;28;20040;-76
2022/09/29 10:43:37;;;;;;;10.43;2.80;;;16.00;70.60;;;;;;5112933;28;20043;-76
2022/09/29 10:46:04;;;;;;;2.85;2.03;;;16.00;69.50;;;;;;5095918;28;20426;-77
2022/09/29 10:48:30;;;;;;;3.20;1.90;;;16.00;70.10;;;;;;5112829;28;20039;-76
2022/09/29 10:51:24;;;;;;;2.88;2.17;;;16.10;68.60;;;;;;5112833;28;20031;-77
2022/09/29 10:53:49;;;;;;;3.05;2.25;;;16.20;68.20;;;;;;5113143;28;20391;-76
2022/09/29 10:56:24;;;;;;;2.70;1.77;;;16.30;67.40;;;;;;5112823;28;20054;-77
2022/09/29 10:59:00;;;;;;;3.15;2.13;;;16.50;67.60;;;;;;5112860;28;20046;-76
2022/09/29 11:01:30;;;;;;;3.03;2.30;;;16.30;66.30;;;;;;5112512;28;20108;-76
2022/09/29 11:04:02;;;;;;;2.65;1.95;;;16.10;67.40;;;;;;5095448;28;20484;-76
2022/09/29 11:06:34;;;;;;;1.15;1.05;;;15.90;67.40;;;;;;5112871;28;20038;-77
2022/09/29 11:09:04;;;;;;;2.00;1.33;;;16.00;67.60;;;;;;5112527;28;20507;-77
2022/09/29 11:11:30;;;;;;;2.15;1.50;;;16.30;67.70;;;;;;5112616;28;20089;-77
2022/09/29 11:13:57;;;;;;;2.35;1.45;;;16.60;67.00;;;;;;5112473;28;20044;-76
2022/09/29 11:16:35;;;;;;;2.70;1.92;;;16.90;66.80;;;;;;5112701;28;20411;-77
2022/09/29 11:19:06;;;;;;;3.70;1.50;;;17.20;66.00;;;;;;5112062;28;20044;-78
2022/09/29 11:21:40;;;;;;;1.90;1.02;;;17.40;62.60;;;;;;5112153;28;20051;-78
2022/09/29 11:24:15;;;;;;;1.90;0.80;;;17.60;63.50;;;;;;5112447;28;20377;-76
2022/09/29 11:27:25;;;;;;;0.73;0.50;;;17.40;61.00;;;;;;5112422;28;20046;-78
2022/09/29 11:30:16;;;;;;;1.48;0.60;;;17.00;60.10;;;;;;5111889;28;20471;-77
2022/09/29 11:32:44;;;;;;;1.55;0.70;;;16.70;61.40;;;;;;5112314;28;20045;-78
2022/09/29 11:35:28;;;;;;;0.82;0.30;;;16.50;62.80;;;;;;5111999;28;20101;-77
2022/09/29 11:38:37;;;;;;;1.98;0.63;;;16.40;61.70;;;;;;5085526;28;20139;-77
2022/09/29 11:41:08;;;;;;;3.08;0.70;;;16.40;61.60;;;;;;5079411;28;20050;-78
2022/09/29 11:43:52;;;;;;;3.63;0.77;;;16.70;61.70;;;;;;5101020;28;20127;-78
2022/09/29 11:46:30;;;;;;;1.52;0.60;;;17.00;61.50;;;;;;5094334;28;20036;-79
2022/09/29 11:49:34;;;;;;;2.10;1.05;;;17.40;59.20;;;;;;5096698;28;20149;-79
2022/09/29 11:52:09;;;;;;;1.45;0.65;;;17.40;58.50;;;;;;5084737;28;20051;-79
2022/09/29 11:54:50;;;;;;;1.35;0.98;;;17.50;58.90;;;;;;5098285;28;20046;-78
2022/09/29 11:57:34;;;;;;;3.80;0.93;;;17.60;58.70;;;;;;5098382;28;20043;-79
2022/09/29 12:00:09;;;;;;;2.30;0.90;;;17.60;58.60;;;;;;5081835;28;20062;-79
2022/09/29 12:03:06;;;;;;;1.95;1.08;;;17.60;57.40;;;;;;5104477;28;20552;-77
2022/09/29 12:05:56;;;;;;;0.88;0.70;;;17.50;58.80;;;;;;5083020;28;20075;-78
2022/09/29 12:08:46;;;;;;;1.20;0.80;;;17.20;61.10;;;;;;5098209;28;20044;-77
2022/09/29 12:11:50;;;;;;;2.95;1.30;;;16.90;62.40;;;;;;5098270;28;20080;-77
2022/09/29 12:14:33;;;;;;;2.17;1.58;;;16.70;64.40;;;;;;5073533;28;20109;-76
2022/09/29 12:17:04;;;;;;;2.90;1.25;;;16.50;65.70;;;;;;5101510;28;20074;-78
2022/09/29 12:19:36;;;;;;;2.63;1.20;;;16.40;66.10;;;;;;5118581;28;20097;-79
2022/09/29 12:22:09;;;;;;;2.90;1.20;;;16.20;66.30;;;;;;5118582;28;20035;-80
2022/09/29 12:24:40;;;;;;;2.55;1.20;;;16.10;66.30;;;;;;5118822;28;20096;-79
2022/09/29 12:27:18;;;;;;;3.65;1.38;;;16.00;67.10;;;;;;5118595;28;20112;-78
2022/09/29 12:29:49;;;;;;;2.05;1.20;;;15.90;67.10;;;;;;5117404;27;20032;-79
2022/09/29 12:32:27;;;;;;;1.02;0.55;;;15.90;67.60;;;;;;5108176;28;20495;-78
2022/09/29 12:35:08;;;;;;;2.08;1.20;;;15.80;67.20;;;;;;5118554;28;20040;-79
2022/09/29 12:37:42;;;;;;;3.25;1.27;;;15.70;67.30;;;;;;5118277;28;20052;-78
2022/09/29 12:40:32;;;;;;;1.85;1.08;;;15.70;67.30;;;;;;5105973;28;20050;-78
2022/09/29 12:43:03;;;;;;;2.53;1.45;;;15.70;67.70;;;;;;5107329;28;20039;-77
2022/09/29 12:46:05;;;;;;;3.28;1.27;;;16.00;67.40;;;;;;5106420;28;20056;-78
2022/09/29 12:48:50;;;;;;;1.73;1.20;;;16.40;66.40;;;;;;5072264;28;20282;-78
2022/09/29 12:51:34;;;;;;;1.92;0.80;;;16.90;64.60;;;;;;5098109;28;20104;-78
2022/09/29 12:54:12;;;;;;;0.70;0.52;;;17.20;62.60;;;;;;5097953;28;20214;-77
2022/09/29 12:56:44;;;;;;;1.38;0.80;;;17.40;60.10;;;;;;5099148;28;20115;-79
2022/09/29 12:59:26;;;;;;;1.92;1.05;;;17.60;59.80;;;;;;5096119;28;20044;-78
2022/09/29 13:01:59;;;;;;;1.55;0.90;;;18.00;60.20;;;;;;5103691;28;20036;-78
2022/09/29 13:04:56;;;;;;;2.03;0.93;;;18.10;59.80;;;;;;5105799;28;20043;-78
2022/09/29 13:07:48;;;;;;;1.27;0.98;;;18.30;59.60;;;;;;5104388;28;20035;-79
2022/09/29 13:10:39;;;;;;;1.13;0.80;;;18.20;59.70;;;;;;5096796;28;20032;-78
2022/09/29 13:13:35;;;;;;;2.35;0.95;;;17.90;59.30;;;;;;5109732;28;20074;-78